Robert C. Seamans — WDA4486 — position and weather

sailwx.info

Track history (hours):
 
Tides and Currents Weather Stations Pressure Air Temp Water Temp Dewpoint Dewpoint Depression Visibility Wind Speed Wind Dir Waves Ship Positions

Oceanographic research ship Robert C. Seamans (USA)

Ship's website: http://www.sea.edu/sea2000/Supporting2000/RobertSeamansIntro.htm

Detailed information on ship capabilities available from University of Delaware's Ocean Information Center.

Owner: Sea Education Association Corporation, Woods Hole, MA. More information available from US FCC via Universal Licensing System and Coast Guard Vessel Documentation Center.

Last reported at 2018-Feb-16 09:18 UTC. Time now 2018-Feb-21 13:12 UTC.
Position S 36°17' E 174°57'.

Type: Sailing vessel. MMSI: 369503000.

Date/timePositionNaut miles runAvg speedWind from/ knotsBaromVisibWave heightAir tempDewpointWater temp
2018-Feb-16 09:18S 36°17' E 174°57'2 5.9
2018-Feb-16 09:00S 36°19' E 174°57'3 5.9
2018-Feb-16 08:30S 36°22' E 174°58'3 5.7
2018-Feb-16 08:00S 36°24' E 174°58'3 5.6
2018-Feb-16 07:30S 36°27' E 174°59'3 5.5
2018-Feb-16 07:00S 36°30' E 174°59'3 5.8
2018-Feb-16 06:29S 36°33' E 174°59'3 5.8
2018-Feb-16 06:00S 36°36' E 174°59'3 5.8
2018-Feb-16 05:30S 36°38' E 174°57'5 5.9
2018-Feb-16 04:42S 36°42' E 174°53'1 6.3
2018-Feb-16 04:30S 36°43' E 174°52'3 6.4
2018-Feb-16 04:00S 36°45' E 174°50'3 5.1
2018-Feb-16 03:29S 36°48' E 174°49'3 4.5
2018-Feb-16 02:55S 36°50' E 174°48'1 2.0
2018-Feb-16 02:20S 36°50' E 174°47'0 0.0
2018-Feb-16 01:56S 36°50' E 174°47'0 0.0
2018-Feb-16 01:26S 36°50' E 174°47'0 0.0
2018-Feb-16 00:56S 36°50' E 174°47'0 0.0
2018-Feb-16 00:26S 36°50' E 174°47'0 0.0
2018-Feb-15 23:56S 36°50' E 174°47'0 0.0
2018-Feb-15 23:20S 36°50' E 174°47'0 0.0
2018-Feb-15 22:56S 36°50' E 174°47'0 0.0
2018-Feb-15 22:26S 36°50' E 174°47'0 0.0
2018-Feb-15 21:56S 36°50' E 174°47'0 0.0
2018-Feb-15 21:26S 36°50' E 174°47'0 0.0
2018-Feb-15 20:56S 36°50' E 174°47'1 1.0
2018-Feb-15 20:26S 36°50' E 174°46'0 0.5
2018-Feb-15 19:55S 36°50' E 174°46'0 0.0
2018-Feb-15 19:25S 36°50' E 174°46'0 0.0
2018-Feb-15 18:55S 36°50' E 174°46'0 0.0
2018-Feb-15 18:25S 36°50' E 174°46'0 0.0
2018-Feb-15 17:49S 36°50' E 174°46'0 0.0
2018-Feb-15 17:25S 36°50' E 174°46'0 0.0
2018-Feb-15 17:01S 36°50' E 174°46'0 0.0
2018-Feb-15 16:25S 36°50' E 174°46'0 0.0
2018-Feb-15 16:01S 36°50' E 174°46'0 0.0
2018-Feb-15 15:25S 36°50' E 174°46'0 0.0
2018-Feb-15 14:55S 36°50' E 174°46'0 0.0
2018-Feb-15 14:25S 36°50' E 174°46'0 0.0
2018-Feb-15 13:55S 36°50' E 174°46'0 0.0
2018-Feb-15 13:30S 36°50' E 174°46'0 0.1
2018-Feb-15 12:55S 36°50' E 174°46'0 0.1
2018-Feb-15 12:19S 36°50' E 174°46'0 0.0
2018-Feb-15 11:55S 36°50' E 174°46'0 0.0
2018-Feb-15 11:30S 36°50' E 174°46'0 0.0
2018-Feb-15 10:55S 36°50' E 174°46'0 0.0
2018-Feb-15 10:25S 36°50' E 174°46'0 0.0
2018-Feb-15 09:55S 36°50' E 174°46'0 0.0
2018-Feb-15 09:25S 36°50' E 174°46'0 0.0
2018-Feb-15 08:55S 36°50' E 174°46'0 0.0
2018-Feb-15 08:24S 36°50' E 174°46'0 0.0
2018-Feb-15 07:49S 36°50' E 174°46'0 0.0
2018-Feb-15 07:25S 36°50' E 174°46'0 0.0
2018-Feb-15 06:55S 36°50' E 174°46'0 0.0
2018-Feb-15 06:19S 36°50' E 174°46'0 0.0
2018-Feb-15 06:01S 36°50' E 174°46'0 0.0
2018-Feb-15 05:25S 36°50' E 174°46'0 0.0
2018-Feb-15 05:01S 36°50' E 174°46'0 0.0
2018-Feb-15 04:30S 36°50' E 174°46'0 0.0
2018-Feb-15 04:01S 36°50' E 174°46'0 0.0
2018-Feb-15 03:25S 36°50' E 174°46'0 0.0
2018-Feb-15 03:00S 36°50' E 174°46'0 0.0
2018-Feb-15 02:25S 36°50' E 174°46'0 0.0
2018-Feb-15 02:00S 36°50' E 174°46'0 0.0
2018-Feb-15 01:30S 36°50' E 174°46'0 0.0
2018-Feb-15 01:00S 36°50' E 174°46'0 0.0
2018-Feb-15 00:31S 36°50' E 174°46'0 0.0
2018-Feb-15 00:01S 36°50' E 174°46'0 0.0
2018-Feb-14 23:30S 36°50' E 174°46'0 0.0
2018-Feb-14 23:01S 36°50' E 174°46'0 0.0
2018-Feb-14 22:25S 36°50' E 174°46'0 0.0
2018-Feb-14 21:55S 36°50' E 174°46'0 0.0
2018-Feb-14 21:30S 36°50' E 174°46'0 0.0
2018-Feb-14 21:00S 36°50' E 174°46'0 0.0
2018-Feb-14 20:30S 36°50' E 174°46'0 0.0
2018-Feb-14 20:00S 36°50' E 174°46'0 0.0
2018-Feb-14 19:31S 36°50' E 174°46'0 0.0
2018-Feb-14 19:00S 36°50' E 174°46'0 0.0
2018-Feb-14 18:30S 36°50' E 174°46'0 0.0
2018-Feb-14 17:54S 36°50' E 174°46'0 0.0
2018-Feb-14 17:30S 36°50' E 174°46'0 0.0
2018-Feb-14 17:00S 36°50' E 174°46'0 0.0
2018-Feb-14 16:30S 36°50' E 174°46'0 0.0
2018-Feb-14 16:00S 36°50' E 174°46'0 0.0
2018-Feb-14 15:30S 36°50' E 174°46'0 0.0
2018-Feb-14 15:01S 36°50' E 174°46'0 0.0
2018-Feb-14 14:12S 36°50' E 174°46'0 0.0
2018-Feb-14 14:00S 36°50' E 174°46'0 0.0
2018-Feb-14 13:24S 36°50' E 174°46'0 0.0
2018-Feb-14 13:00S 36°50' E 174°46'0 0.0
2018-Feb-14 12:31S 36°50' E 174°46'0 0.0
2018-Feb-14 12:00S 36°50' E 174°46'0 0.1
2018-Feb-14 11:30S 36°50' E 174°46'0 0.0
2018-Feb-14 11:00S 36°50' E 174°46'0 0.0
2018-Feb-14 10:30S 36°50' E 174°46'0 0.1
2018-Feb-14 10:00S 36°50' E 174°46'0 0.0
2018-Feb-14 09:30S 36°50' E 174°46'0 0.0
2018-Feb-14 09:00S 36°50' E 174°46'0 0.0
2018-Feb-14 08:30S 36°50' E 174°46'0 0.0
2018-Feb-14 07:48S 36°50' E 174°46'0 0.0
2018-Feb-14 07:30S 36°50' E 174°46'0 0.0
2018-Feb-14 07:00S 36°50' E 174°46'0 0.0
2018-Feb-14 06:30S 36°50' E 174°46'0 0.0
2018-Feb-14 06:00S 36°50' E 174°46'0 0.0
2018-Feb-14 05:24S 36°50' E 174°46'0 0.0
2018-Feb-14 04:54S 36°50' E 174°46'0 0.0
2018-Feb-14 04:24S 36°50' E 174°46'0 0.0
2018-Feb-14 04:00S 36°50' E 174°46'0 0.0
2018-Feb-14 03:30S 36°50' E 174°46'0 0.0
2018-Feb-14 03:00S 36°50' E 174°46'0 0.0
2018-Feb-14 02:30S 36°50' E 174°46'0 0.0
2018-Feb-14 02:00S 36°50' E 174°46'0 0.0
2018-Feb-14 01:30S 36°50' E 174°46'0 0.0
2018-Feb-14 01:00S 36°50' E 174°46'0 0.0
2018-Feb-14 00:29S 36°50' E 174°46'0 0.0
2018-Feb-13 23:59S 36°50' E 174°46'0 0.0
2018-Feb-13 23:23S 36°50' E 174°46'0 0.1
2018-Feb-13 22:59S 36°50' E 174°46'0 0.1
2018-Feb-13 22:29S 36°50' E 174°46'0 0.0
2018-Feb-13 21:59S 36°50' E 174°46'0 0.0
2018-Feb-13 21:29S 36°50' E 174°46'0 0.0
2018-Feb-13 20:59S 36°50' E 174°46'0 0.0
2018-Feb-13 20:29S 36°50' E 174°46'0 0.0
2018-Feb-13 19:59S 36°50' E 174°46'0 0.0
2018-Feb-13 19:29S 36°50' E 174°46'0 0.0
2018-Feb-13 18:53S 36°50' E 174°46'0 0.0
2018-Feb-13 17:47S 36°50' E 174°46'0 0.0
2018-Feb-13 17:29S 36°50' E 174°46'0 0.0
2018-Feb-13 16:59S 36°50' E 174°46'0 0.0
2018-Feb-13 16:29S 36°50' E 174°46'0 0.0
2018-Feb-13 15:59S 36°50' E 174°46'0 0.0
2018-Feb-13 15:29S 36°50' E 174°46'0 0.0
2018-Feb-13 14:53S 36°50' E 174°46'0 0.0
2018-Feb-13 14:29S 36°50' E 174°46'0 0.0
2018-Feb-13 13:59S 36°50' E 174°46'0 0.0
2018-Feb-13 13:29S 36°50' E 174°46'0 0.0
2018-Feb-13 12:59S 36°50' E 174°46'0 0.0
2018-Feb-13 12:29S 36°50' E 174°46'0 0.1
2018-Feb-13 11:59S 36°50' E 174°46'0 0.0
2018-Feb-13 11:29S 36°50' E 174°46'0 0.1
2018-Feb-13 10:59S 36°50' E 174°46'0 0.1
2018-Feb-13 10:29S 36°50' E 174°46'0 0.1
2018-Feb-13 09:59S 36°50' E 174°46'0 0.0
2018-Feb-13 09:29S 36°50' E 174°46'0 0.0
2018-Feb-13 08:53S 36°50' E 174°46'0 0.0
2018-Feb-13 08:29S 36°50' E 174°46'0 0.0
2018-Feb-13 07:59S 36°50' E 174°46'0 0.1
2018-Feb-13 07:29S 36°50' E 174°46'0 0.1
2018-Feb-13 06:59S 36°50' E 174°46'0 0.0
2018-Feb-13 06:29S 36°50' E 174°46'0 0.0
2018-Feb-13 05:59S 36°50' E 174°46'0 0.0
2018-Feb-13 05:29S 36°50' E 174°46'0 0.0
2018-Feb-13 04:59S 36°50' E 174°46'0 0.0
2018-Feb-13 04:23S 36°50' E 174°46'0 0.0
2018-Feb-13 03:59S 36°50' E 174°46'0 0.0
2018-Feb-13 03:29S 36°50' E 174°46'0 0.0
2018-Feb-13 02:59S 36°50' E 174°46'0 0.0
2018-Feb-13 02:29S 36°50' E 174°46'0 0.0
2018-Feb-13 01:59S 36°50' E 174°46'0 0.0
2018-Feb-13 01:29S 36°50' E 174°46'0 0.0
2018-Feb-13 00:59S 36°50' E 174°46'0 0.0
2018-Feb-13 00:29S 36°50' E 174°46'0 0.0
2018-Feb-12 23:59S 36°50' E 174°46'0 0.0
2018-Feb-12 23:29S 36°50' E 174°46'0 0.0
2018-Feb-12 23:00S 36°50' E 174°46'0 0.0
2018-Feb-12 22:30S 36°50' E 174°46'0 0.0
2018-Feb-12 22:00S 36°50' E 174°46'0 0.0
2018-Feb-12 21:30S 36°50' E 174°46'0 0.0
2018-Feb-12 21:00S 36°50' E 174°46'0 0.0
2018-Feb-12 20:30S 36°50' E 174°46'0 0.0
2018-Feb-12 20:00S 36°50' E 174°46'0 0.0
2018-Feb-12 19:30S 36°50' E 174°46'0 0.0
2018-Feb-12 19:00S 36°50' E 174°46'0 0.1
2018-Feb-12 18:30S 36°50' E 174°46'0 0.1
2018-Feb-12 18:00S 36°50' E 174°46'0 0.0
2018-Feb-12 17:30S 36°50' E 174°46'0 0.0
2018-Feb-12 16:48S 36°50' E 174°46'0 0.0
2018-Feb-12 16:30S 36°50' E 174°46'0 0.0
2018-Feb-12 15:54S 36°50' E 174°46'0 0.0
2018-Feb-12 15:12S 36°50' E 174°46'0 0.0
2018-Feb-12 15:00S 36°50' E 174°46'0 0.0
2018-Feb-12 14:30S 36°50' E 174°46'0 0.0
2018-Feb-12 14:00S 36°50' E 174°46'0 0.0
2018-Feb-12 13:30S 36°50' E 174°46'0 0.0
2018-Feb-12 12:58S 36°50' E 174°46'0 0.0
2018-Feb-12 12:28S 36°50' E 174°46'0 0.0
2018-Feb-12 11:52S 36°50' E 174°46'0 0.0
2018-Feb-12 11:28S 36°50' E 174°46'0 0.0
2018-Feb-12 10:58S 36°50' E 174°46'0 0.0
2018-Feb-12 10:28S 36°50' E 174°46'0 0.0
2018-Feb-12 09:58S 36°50' E 174°46'0 0.0
2018-Feb-12 09:28S 36°50' E 174°46'0 0.0
2018-Feb-12 08:58S 36°50' E 174°46'0 0.0
2018-Feb-12 08:04S 36°50' E 174°46'0 0.0
2018-Feb-12 07:52S 36°50' E 174°46'0 0.0
2018-Feb-12 07:28S 36°50' E 174°46'0 0.0
2018-Feb-12 06:55S 36°50' E 174°46'0 0.0
2018-Feb-12 06:13S 36°50' E 174°46'0 0.0
2018-Feb-12 05:43S 36°50' E 174°46'0 0.0
2018-Feb-12 05:25S 36°50' E 174°46'0 0.0
2018-Feb-12 04:55S 36°50' E 174°46'0 0.0
2018-Feb-12 04:25S 36°50' E 174°46'0 0.0
2018-Feb-12 03:55S 36°50' E 174°46'0 0.0
2018-Feb-12 03:25S 36°50' E 174°46'0 0.0
2018-Feb-12 02:55S 36°50' E 174°46'0 0.0
2018-Feb-12 02:25S 36°50' E 174°46'0 0.0
2018-Feb-12 01:19S 36°50' E 174°46'0 0.0
2018-Feb-12 00:55S 36°50' E 174°46'0 0.0
2018-Feb-12 00:25S 36°50' E 174°46'0 0.0
2018-Feb-11 23:55S 36°50' E 174°46'0 0.1
2018-Feb-11 23:19S 36°50' E 174°46'0 0.0
2018-Feb-11 22:55S 36°50' E 174°46'0 0.1
2018-Feb-11 22:25S 36°50' E 174°46'0 0.0
2018-Feb-11 21:55S 36°50' E 174°46'0 0.0
2018-Feb-11 21:25S 36°50' E 174°46'0 0.0
2018-Feb-11 20:55S 36°50' E 174°46'0 0.0
2018-Feb-11 20:25S 36°50' E 174°46'0 0.0
2018-Feb-11 19:55S 36°50' E 174°46'0 0.0
2018-Feb-11 19:25S 36°50' E 174°46'0 0.0
2018-Feb-11 18:55S 36°50' E 174°46'0 0.0
2018-Feb-11 18:25S 36°50' E 174°46'0 0.0
2018-Feb-11 17:55S 36°50' E 174°46'0 0.0
2018-Feb-11 17:25S 36°50' E 174°46'0 0.0
2018-Feb-11 16:55S 36°50' E 174°46'0 0.0
2018-Feb-11 16:19S 36°50' E 174°46'0 0.0
2018-Feb-11 15:55S 36°50' E 174°46'0 0.0
2018-Feb-11 15:25S 36°50' E 174°46'0 0.0
2018-Feb-11 14:55S 36°50' E 174°46'0 0.0
2018-Feb-11 14:25S 36°50' E 174°46'0 0.0
2018-Feb-11 13:55S 36°50' E 174°46'0 0.0
2018-Feb-11 13:25S 36°50' E 174°46'0 0.0
2018-Feb-11 12:55S 36°50' E 174°46'0 0.0
2018-Feb-11 12:25S 36°50' E 174°46'0 0.0
2018-Feb-11 11:55S 36°50' E 174°46'0 0.0
2018-Feb-11 11:25S 36°50' E 174°46'0 0.0
2018-Feb-11 10:49S 36°50' E 174°46'0 0.0
2018-Feb-11 10:25S 36°50' E 174°46'0 0.0
2018-Feb-11 09:49S 36°50' E 174°46'0 0.0
2018-Feb-11 09:25S 36°50' E 174°46'0 0.0
2018-Feb-11 08:55S 36°50' E 174°46'0 0.0
2018-Feb-11 08:25S 36°50' E 174°46'0 0.0
2018-Feb-11 07:55S 36°50' E 174°46'0 0.1
2018-Feb-11 07:25S 36°50' E 174°46'0 0.1
2018-Feb-11 06:49S 36°50' E 174°46'0 0.0
2018-Feb-11 06:25S 36°50' E 174°46'0 0.0
2018-Feb-11 05:55S 36°50' E 174°46'0 0.0
2018-Feb-11 05:25S 36°50' E 174°46'0 0.0
2018-Feb-11 04:55S 36°50' E 174°46'0 0.0
2018-Feb-11 04:25S 36°50' E 174°46'0 0.0
2018-Feb-11 03:55S 36°50' E 174°46'0 0.0
2018-Feb-11 03:19S 36°50' E 174°46'0 0.0
2018-Feb-11 02:55S 36°50' E 174°46'0 0.0
2018-Feb-11 02:25S 36°50' E 174°46'0 0.0
2018-Feb-11 01:55S 36°50' E 174°46'0 0.0
2018-Feb-11 01:25S 36°50' E 174°46'0 0.0
2018-Feb-11 00:55S 36°50' E 174°46'0 0.0
2018-Feb-11 00:25S 36°50' E 174°46'0 0.0
2018-Feb-10 23:55S 36°50' E 174°46'0 0.0
2018-Feb-10 23:29S 36°50' E 174°46'0 0.1
2018-Feb-10 23:00S 36°50' E 174°46'0 0.1
2018-Feb-10 22:30S 36°50' E 174°46'0 0.0
2018-Feb-10 21:42S 36°50' E 174°46'0 0.0
2018-Feb-10 21:30S 36°50' E 174°46'0 0.0
2018-Feb-10 20:54S 36°50' E 174°46'0 0.0
2018-Feb-10 20:24S 36°50' E 174°46'0 0.0
2018-Feb-10 20:00S 36°50' E 174°46'0 0.0
2018-Feb-10 19:30S 36°50' E 174°46'0 0.0
2018-Feb-10 19:00S 36°50' E 174°46'0 0.0
2018-Feb-10 18:30S 36°50' E 174°46'0 0.0
2018-Feb-10 18:00S 36°50' E 174°46'0 0.0
2018-Feb-10 17:30S 36°50' E 174°46'0 0.0
2018-Feb-10 17:00S 36°50' E 174°46'0 0.0
2018-Feb-10 16:30S 36°50' E 174°46'0 0.0
2018-Feb-10 16:00S 36°50' E 174°46'0 0.0
2018-Feb-10 15:30S 36°50' E 174°46'0 0.0
2018-Feb-10 15:00S 36°50' E 174°46'0 0.0
2018-Feb-10 14:24S 36°50' E 174°46'0 0.0
2018-Feb-10 14:00S 36°50' E 174°46'0 0.0
2018-Feb-10 13:30S 36°50' E 174°46'0 0.0
2018-Feb-10 12:56S 36°50' E 174°46'0 0.0
2018-Feb-10 12:26S 36°50' E 174°46'0 0.0
2018-Feb-10 11:56S 36°50' E 174°46'0 0.0
2018-Feb-10 11:26S 36°50' E 174°46'0 0.0
2018-Feb-10 10:50S 36°50' E 174°46'0 0.0
2018-Feb-10 10:26S 36°50' E 174°46'0 0.0
2018-Feb-10 09:56S 36°50' E 174°46'0 0.1
2018-Feb-10 09:26S 36°50' E 174°46'0 0.1
2018-Feb-10 08:50S 36°50' E 174°46'0 0.0
2018-Feb-10 08:26S 36°50' E 174°46'0 0.0
2018-Feb-10 07:56S 36°50' E 174°46'0 0.1
2018-Feb-10 07:26S 36°50' E 174°46'0 0.0
2018-Feb-10 06:56S 36°50' E 174°46'0 0.1
2018-Feb-10 06:20S 36°50' E 174°46'0 0.0
2018-Feb-10 05:50S 36°50' E 174°46'0 0.0
2018-Feb-10 05:26S 36°50' E 174°46'0 0.0
2018-Feb-10 04:56S 36°50' E 174°46'0 0.0
2018-Feb-10 04:26S 36°50' E 174°46'0 0.0
2018-Feb-10 03:56S 36°50' E 174°46'0 0.0
2018-Feb-10 03:14S 36°50' E 174°46'0 0.2
2018-Feb-10 02:56S 36°50' E 174°46'0 0.1
2018-Feb-10 02:26S 36°50' E 174°46'0 0.0
2018-Feb-10 01:56S 36°50' E 174°46'0 0.0
2018-Feb-10 01:26S 36°50' E 174°46'0 0.0
2018-Feb-10 00:56S 36°50' E 174°46'0 0.0
2018-Feb-10 00:26S 36°50' E 174°46'0 0.0
2018-Feb-09 23:50S 36°50' E 174°46'0 0.0
2018-Feb-09 23:27S 36°50' E 174°46'0 0.0
2018-Feb-09 22:57S 36°50' E 174°46'0 0.0
2018-Feb-09 22:45S 36°50' E 174°46'0 0.0
2018-Feb-08 01:30S 36°50' E 174°46'0 0.0
2018-Feb-08 00:59S 36°50' E 174°46'0 0.0
2018-Feb-08 00:30S 36°50' E 174°46'0 0.0
2018-Feb-07 23:59S 36°50' E 174°46'0 0.0
2018-Feb-07 23:30S 36°50' E 174°46'0 0.0
2018-Feb-07 23:00S 36°50' E 174°46'0 0.0
2018-Feb-07 22:30S 36°50' E 174°46'0 0.0
2018-Feb-07 22:00S 36°50' E 174°46'0 0.0
2018-Feb-07 21:29S 36°50' E 174°46'25 2.1
2018-Feb-07 09:30S 36°27' E 174°58'3 7.0
2018-Feb-07 09:00S 36°24' E 174°57'3 6.3
2018-Feb-07 08:30S 36°21' E 174°56'3 5.9
2018-Feb-07 08:00S 36°18' E 174°55'9 4.5
2018-Feb-07 05:55S 36°10' E 174°48'2 5.4
2018-Feb-07 05:30S 36°09' E 174°46'7 5.7
2018-Feb-07 04:17S 36°03' E 174°42'  
Track history (hours):
 
Tides and Currents Weather Stations Pressure Air Temp Water Temp Dewpoint Dewpoint Depression Visibility Wind Speed Wind Dir Waves Ship Positions

Oceanographic research ship Robert C. Seamans (USA)

Ship's website: http://www.sea.edu/sea2000/Supporting2000/RobertSeamansIntro.htm

Detailed information on ship capabilities available from University of Delaware's Ocean Information Center.

Owner: Sea Education Association Corporation, Woods Hole, MA. More information available from US FCC via Universal Licensing System and Coast Guard Vessel Documentation Center.

Last reported at 2018-Feb-16 09:18 UTC. Time now 2018-Feb-21 13:12 UTC.
Position S 36°17' E 174°57'.

Type: Sailing vessel. MMSI: 369503000.

Date/timePositionNaut miles runAvg speedWind from/ knotsBaromVisibWave heightAir tempDewpointWater temp
2018-Feb-16 09:18S 36°17' E 174°57'2 5.9
2018-Feb-16 09:00S 36°19' E 174°57'3 5.9
2018-Feb-16 08:30S 36°22' E 174°58'3 5.7
2018-Feb-16 08:00S 36°24' E 174°58'3 5.6
2018-Feb-16 07:30S 36°27' E 174°59'3 5.5
2018-Feb-16 07:00S 36°30' E 174°59'3 5.8
2018-Feb-16 06:29S 36°33' E 174°59'3 5.8
2018-Feb-16 06:00S 36°36' E 174°59'3 5.8
2018-Feb-16 05:30S 36°38' E 174°57'5 5.9
2018-Feb-16 04:42S 36°42' E 174°53'1 6.3
2018-Feb-16 04:30S 36°43' E 174°52'3 6.4
2018-Feb-16 04:00S 36°45' E 174°50'3 5.1
2018-Feb-16 03:29S 36°48' E 174°49'3 4.5
2018-Feb-16 02:55S 36°50' E 174°48'1 2.0
2018-Feb-16 02:20S 36°50' E 174°47'0 0.0
2018-Feb-16 01:56S 36°50' E 174°47'0 0.0
2018-Feb-16 01:26S 36°50' E 174°47'0 0.0
2018-Feb-16 00:56S 36°50' E 174°47'0 0.0
2018-Feb-16 00:26S 36°50' E 174°47'0 0.0
2018-Feb-15 23:56S 36°50' E 174°47'0 0.0
2018-Feb-15 23:20S 36°50' E 174°47'0 0.0
2018-Feb-15 22:56S 36°50' E 174°47'0 0.0
2018-Feb-15 22:26S 36°50' E 174°47'0 0.0
2018-Feb-15 21:56S 36°50' E 174°47'0 0.0
2018-Feb-15 21:26S 36°50' E 174°47'0 0.0
2018-Feb-15 20:56S 36°50' E 174°47'1 1.0
2018-Feb-15 20:26S 36°50' E 174°46'0 0.5
2018-Feb-15 19:55S 36°50' E 174°46'0 0.0
2018-Feb-15 19:25S 36°50' E 174°46'0 0.0
2018-Feb-15 18:55S 36°50' E 174°46'0 0.0
2018-Feb-15 18:25S 36°50' E 174°46'0 0.0
2018-Feb-15 17:49S 36°50' E 174°46'0 0.0
2018-Feb-15 17:25S 36°50' E 174°46'0 0.0
2018-Feb-15 17:01S 36°50' E 174°46'0 0.0
2018-Feb-15 16:25S 36°50' E 174°46'0 0.0
2018-Feb-15 16:01S 36°50' E 174°46'0 0.0
2018-Feb-15 15:25S 36°50' E 174°46'0 0.0
2018-Feb-15 14:55S 36°50' E 174°46'0 0.0
2018-Feb-15 14:25S 36°50' E 174°46'0 0.0
2018-Feb-15 13:55S 36°50' E 174°46'0 0.0
2018-Feb-15 13:30S 36°50' E 174°46'0 0.1
2018-Feb-15 12:55S 36°50' E 174°46'0 0.1
2018-Feb-15 12:19S 36°50' E 174°46'0 0.0
2018-Feb-15 11:55S 36°50' E 174°46'0 0.0
2018-Feb-15 11:30S 36°50' E 174°46'0 0.0
2018-Feb-15 10:55S 36°50' E 174°46'0 0.0
2018-Feb-15 10:25S 36°50' E 174°46'0 0.0
2018-Feb-15 09:55S 36°50' E 174°46'0 0.0
2018-Feb-15 09:25S 36°50' E 174°46'0 0.0
2018-Feb-15 08:55S 36°50' E 174°46'0 0.0
2018-Feb-15 08:24S 36°50' E 174°46'0 0.0
2018-Feb-15 07:49S 36°50' E 174°46'0 0.0
2018-Feb-15 07:25S 36°50' E 174°46'0 0.0
2018-Feb-15 06:55S 36°50' E 174°46'0 0.0
2018-Feb-15 06:19S 36°50' E 174°46'0 0.0
2018-Feb-15 06:01S 36°50' E 174°46'0 0.0
2018-Feb-15 05:25S 36°50' E 174°46'0 0.0
2018-Feb-15 05:01S 36°50' E 174°46'0 0.0
2018-Feb-15 04:30S 36°50' E 174°46'0 0.0
2018-Feb-15 04:01S 36°50' E 174°46'0 0.0
2018-Feb-15 03:25S 36°50' E 174°46'0 0.0
2018-Feb-15 03:00S 36°50' E 174°46'0 0.0
2018-Feb-15 02:25S 36°50' E 174°46'0 0.0
2018-Feb-15 02:00S 36°50' E 174°46'0 0.0
2018-Feb-15 01:30S 36°50' E 174°46'0 0.0
2018-Feb-15 01:00S 36°50' E 174°46'0 0.0
2018-Feb-15 00:31S 36°50' E 174°46'0 0.0
2018-Feb-15 00:01S 36°50' E 174°46'0 0.0
2018-Feb-14 23:30S 36°50' E 174°46'0 0.0
2018-Feb-14 23:01S 36°50' E 174°46'0 0.0
2018-Feb-14 22:25S 36°50' E 174°46'0 0.0
2018-Feb-14 21:55S 36°50' E 174°46'0 0.0
2018-Feb-14 21:30S 36°50' E 174°46'0 0.0
2018-Feb-14 21:00S 36°50' E 174°46'0 0.0
2018-Feb-14 20:30S 36°50' E 174°46'0 0.0
2018-Feb-14 20:00S 36°50' E 174°46'0 0.0
2018-Feb-14 19:31S 36°50' E 174°46'0 0.0
2018-Feb-14 19:00S 36°50' E 174°46'0 0.0
2018-Feb-14 18:30S 36°50' E 174°46'0 0.0
2018-Feb-14 17:54S 36°50' E 174°46'0 0.0
2018-Feb-14 17:30S 36°50' E 174°46'0 0.0
2018-Feb-14 17:00S 36°50' E 174°46'0 0.0
2018-Feb-14 16:30S 36°50' E 174°46'0 0.0
2018-Feb-14 16:00S 36°50' E 174°46'0 0.0
2018-Feb-14 15:30S 36°50' E 174°46'0 0.0
2018-Feb-14 15:01S 36°50' E 174°46'0 0.0
2018-Feb-14 14:12S 36°50' E 174°46'0 0.0
2018-Feb-14 14:00S 36°50' E 174°46'0 0.0
2018-Feb-14 13:24S 36°50' E 174°46'0 0.0
2018-Feb-14 13:00S 36°50' E 174°46'0 0.0
2018-Feb-14 12:31S 36°50' E 174°46'0 0.0
2018-Feb-14 12:00S 36°50' E 174°46'0 0.1
2018-Feb-14 11:30S 36°50' E 174°46'0 0.0
2018-Feb-14 11:00S 36°50' E 174°46'0 0.0
2018-Feb-14 10:30S 36°50' E 174°46'0 0.1
2018-Feb-14 10:00S 36°50' E 174°46'0 0.0
2018-Feb-14 09:30S 36°50' E 174°46'0 0.0
2018-Feb-14 09:00S 36°50' E 174°46'0 0.0
2018-Feb-14 08:30S 36°50' E 174°46'0 0.0
2018-Feb-14 07:48S 36°50' E 174°46'0 0.0
2018-Feb-14 07:30S 36°50' E 174°46'0 0.0
2018-Feb-14 07:00S 36°50' E 174°46'0 0.0
2018-Feb-14 06:30S 36°50' E 174°46'0 0.0
2018-Feb-14 06:00S 36°50' E 174°46'0 0.0
2018-Feb-14 05:24S 36°50' E 174°46'0 0.0
2018-Feb-14 04:54S 36°50' E 174°46'0 0.0
2018-Feb-14 04:24S 36°50' E 174°46'0 0.0
2018-Feb-14 04:00S 36°50' E 174°46'0 0.0
2018-Feb-14 03:30S 36°50' E 174°46'0 0.0
2018-Feb-14 03:00S 36°50' E 174°46'0 0.0
2018-Feb-14 02:30S 36°50' E 174°46'0 0.0
2018-Feb-14 02:00S 36°50' E 174°46'0 0.0
2018-Feb-14 01:30S 36°50' E 174°46'0 0.0
2018-Feb-14 01:00S 36°50' E 174°46'0 0.0
2018-Feb-14 00:29S 36°50' E 174°46'0 0.0
2018-Feb-13 23:59S 36°50' E 174°46'0 0.0
2018-Feb-13 23:23S 36°50' E 174°46'0 0.1
2018-Feb-13 22:59S 36°50' E 174°46'0 0.1
2018-Feb-13 22:29S 36°50' E 174°46'0 0.0
2018-Feb-13 21:59S 36°50' E 174°46'0 0.0
2018-Feb-13 21:29S 36°50' E 174°46'0 0.0
2018-Feb-13 20:59S 36°50' E 174°46'0 0.0
2018-Feb-13 20:29S 36°50' E 174°46'0 0.0
2018-Feb-13 19:59S 36°50' E 174°46'0 0.0
2018-Feb-13 19:29S 36°50' E 174°46'0 0.0
2018-Feb-13 18:53S 36°50' E 174°46'0 0.0
2018-Feb-13 17:47S 36°50' E 174°46'0 0.0
2018-Feb-13 17:29S 36°50' E 174°46'0 0.0
2018-Feb-13 16:59S 36°50' E 174°46'0 0.0
2018-Feb-13 16:29S 36°50' E 174°46'0 0.0
2018-Feb-13 15:59S 36°50' E 174°46'0 0.0
2018-Feb-13 15:29S 36°50' E 174°46'0 0.0
2018-Feb-13 14:53S 36°50' E 174°46'0 0.0
2018-Feb-13 14:29S 36°50' E 174°46'0 0.0
2018-Feb-13 13:59S 36°50' E 174°46'0 0.0
2018-Feb-13 13:29S 36°50' E 174°46'0 0.0
2018-Feb-13 12:59S 36°50' E 174°46'0 0.0
2018-Feb-13 12:29S 36°50' E 174°46'0 0.1
2018-Feb-13 11:59S 36°50' E 174°46'0 0.0
2018-Feb-13 11:29S 36°50' E 174°46'0 0.1
2018-Feb-13 10:59S 36°50' E 174°46'0 0.1
2018-Feb-13 10:29S 36°50' E 174°46'0 0.1
2018-Feb-13 09:59S 36°50' E 174°46'0 0.0
2018-Feb-13 09:29S 36°50' E 174°46'0 0.0
2018-Feb-13 08:53S 36°50' E 174°46'0 0.0
2018-Feb-13 08:29S 36°50' E 174°46'0 0.0
2018-Feb-13 07:59S 36°50' E 174°46'0 0.1
2018-Feb-13 07:29S 36°50' E 174°46'0 0.1
2018-Feb-13 06:59S 36°50' E 174°46'0 0.0
2018-Feb-13 06:29S 36°50' E 174°46'0 0.0
2018-Feb-13 05:59S 36°50' E 174°46'0 0.0
2018-Feb-13 05:29S 36°50' E 174°46'0 0.0
2018-Feb-13 04:59S 36°50' E 174°46'0 0.0
2018-Feb-13 04:23S 36°50' E 174°46'0 0.0
2018-Feb-13 03:59S 36°50' E 174°46'0 0.0
2018-Feb-13 03:29S 36°50' E 174°46'0 0.0
2018-Feb-13 02:59S 36°50' E 174°46'0 0.0
2018-Feb-13 02:29S 36°50' E 174°46'0 0.0
2018-Feb-13 01:59S 36°50' E 174°46'0 0.0
2018-Feb-13 01:29S 36°50' E 174°46'0 0.0
2018-Feb-13 00:59S 36°50' E 174°46'0 0.0
2018-Feb-13 00:29S 36°50' E 174°46'0 0.0
2018-Feb-12 23:59S 36°50' E 174°46'0 0.0
2018-Feb-12 23:29S 36°50' E 174°46'0 0.0
2018-Feb-12 23:00S 36°50' E 174°46'0 0.0
2018-Feb-12 22:30S 36°50' E 174°46'0 0.0
2018-Feb-12 22:00S 36°50' E 174°46'0 0.0
2018-Feb-12 21:30S 36°50' E 174°46'0 0.0
2018-Feb-12 21:00S 36°50' E 174°46'0 0.0
2018-Feb-12 20:30S 36°50' E 174°46'0 0.0
2018-Feb-12 20:00S 36°50' E 174°46'0 0.0
2018-Feb-12 19:30S 36°50' E 174°46'0 0.0
2018-Feb-12 19:00S 36°50' E 174°46'0 0.1
2018-Feb-12 18:30S 36°50' E 174°46'0 0.1
2018-Feb-12 18:00S 36°50' E 174°46'0 0.0
2018-Feb-12 17:30S 36°50' E 174°46'0 0.0
2018-Feb-12 16:48S 36°50' E 174°46'0 0.0
2018-Feb-12 16:30S 36°50' E 174°46'0 0.0
2018-Feb-12 15:54S 36°50' E 174°46'0 0.0
2018-Feb-12 15:12S 36°50' E 174°46'0 0.0
2018-Feb-12 15:00S 36°50' E 174°46'0 0.0
2018-Feb-12 14:30S 36°50' E 174°46'0 0.0
2018-Feb-12 14:00S 36°50' E 174°46'0 0.0
2018-Feb-12 13:30S 36°50' E 174°46'0 0.0
2018-Feb-12 12:58S 36°50' E 174°46'0 0.0
2018-Feb-12 12:28S 36°50' E 174°46'0 0.0
2018-Feb-12 11:52S 36°50' E 174°46'0 0.0
2018-Feb-12 11:28S 36°50' E 174°46'0 0.0
2018-Feb-12 10:58S 36°50' E 174°46'0 0.0
2018-Feb-12 10:28S 36°50' E 174°46'0 0.0
2018-Feb-12 09:58S 36°50' E 174°46'0 0.0
2018-Feb-12 09:28S 36°50' E 174°46'0 0.0
2018-Feb-12 08:58S 36°50' E 174°46'0 0.0
2018-Feb-12 08:04S 36°50' E 174°46'0 0.0
2018-Feb-12 07:52S 36°50' E 174°46'0 0.0
2018-Feb-12 07:28S 36°50' E 174°46'0 0.0
2018-Feb-12 06:55S 36°50' E 174°46'0 0.0
2018-Feb-12 06:13S 36°50' E 174°46'0 0.0
2018-Feb-12 05:43S 36°50' E 174°46'0 0.0
2018-Feb-12 05:25S 36°50' E 174°46'0 0.0
2018-Feb-12 04:55S 36°50' E 174°46'0 0.0
2018-Feb-12 04:25S 36°50' E 174°46'0 0.0
2018-Feb-12 03:55S 36°50' E 174°46'0 0.0
2018-Feb-12 03:25S 36°50' E 174°46'0 0.0
2018-Feb-12 02:55S 36°50' E 174°46'0 0.0
2018-Feb-12 02:25S 36°50' E 174°46'0 0.0
2018-Feb-12 01:19S 36°50' E 174°46'0 0.0
2018-Feb-12 00:55S 36°50' E 174°46'0 0.0
2018-Feb-12 00:25S 36°50' E 174°46'0 0.0
2018-Feb-11 23:55S 36°50' E 174°46'0 0.1
2018-Feb-11 23:19S 36°50' E 174°46'0 0.0
2018-Feb-11 22:55S 36°50' E 174°46'0 0.1
2018-Feb-11 22:25S 36°50' E 174°46'0 0.0
2018-Feb-11 21:55S 36°50' E 174°46'0 0.0
2018-Feb-11 21:25S 36°50' E 174°46'0 0.0
2018-Feb-11 20:55S 36°50' E 174°46'0 0.0
2018-Feb-11 20:25S 36°50' E 174°46'0 0.0
2018-Feb-11 19:55S 36°50' E 174°46'0 0.0
2018-Feb-11 19:25S 36°50' E 174°46'0 0.0
2018-Feb-11 18:55S 36°50' E 174°46'0 0.0
2018-Feb-11 18:25S 36°50' E 174°46'0 0.0
2018-Feb-11 17:55S 36°50' E 174°46'0 0.0
2018-Feb-11 17:25S 36°50' E 174°46'0 0.0
2018-Feb-11 16:55S 36°50' E 174°46'0 0.0
2018-Feb-11 16:19S 36°50' E 174°46'0 0.0
2018-Feb-11 15:55S 36°50' E 174°46'0 0.0
2018-Feb-11 15:25S 36°50' E 174°46'0 0.0
2018-Feb-11 14:55S 36°50' E 174°46'0 0.0
2018-Feb-11 14:25S 36°50' E 174°46'0 0.0
2018-Feb-11 13:55S 36°50' E 174°46'0 0.0
2018-Feb-11 13:25S 36°50' E 174°46'0 0.0
2018-Feb-11 12:55S 36°50' E 174°46'0 0.0
2018-Feb-11 12:25S 36°50' E 174°46'0 0.0
2018-Feb-11 11:55S 36°50' E 174°46'0 0.0
2018-Feb-11 11:25S 36°50' E 174°46'0 0.0
2018-Feb-11 10:49S 36°50' E 174°46'0 0.0
2018-Feb-11 10:25S 36°50' E 174°46'0 0.0
2018-Feb-11 09:49S 36°50' E 174°46'0 0.0
2018-Feb-11 09:25S 36°50' E 174°46'0 0.0
2018-Feb-11 08:55S 36°50' E 174°46'0 0.0
2018-Feb-11 08:25S 36°50' E 174°46'0 0.0
2018-Feb-11 07:55S 36°50' E 174°46'0 0.1
2018-Feb-11 07:25S 36°50' E 174°46'0 0.1
2018-Feb-11 06:49S 36°50' E 174°46'0 0.0
2018-Feb-11 06:25S 36°50' E 174°46'0 0.0
2018-Feb-11 05:55S 36°50' E 174°46'0 0.0
2018-Feb-11 05:25S 36°50' E 174°46'0 0.0
2018-Feb-11 04:55S 36°50' E 174°46'0 0.0
2018-Feb-11 04:25S 36°50' E 174°46'0 0.0
2018-Feb-11 03:55S 36°50' E 174°46'0 0.0
2018-Feb-11 03:19S 36°50' E 174°46'0 0.0
2018-Feb-11 02:55S 36°50' E 174°46'0 0.0
2018-Feb-11 02:25S 36°50' E 174°46'0 0.0
2018-Feb-11 01:55S 36°50' E 174°46'0 0.0
2018-Feb-11 01:25S 36°50' E 174°46'0 0.0
2018-Feb-11 00:55S 36°50' E 174°46'0 0.0
2018-Feb-11 00:25S 36°50' E 174°46'0 0.0
2018-Feb-10 23:55S 36°50' E 174°46'0 0.0
2018-Feb-10 23:29S 36°50' E 174°46'0 0.1
2018-Feb-10 23:00S 36°50' E 174°46'0 0.1
2018-Feb-10 22:30S 36°50' E 174°46'0 0.0
2018-Feb-10 21:42S 36°50' E 174°46'0 0.0
2018-Feb-10 21:30S 36°50' E 174°46'0 0.0
2018-Feb-10 20:54S 36°50' E 174°46'0 0.0
2018-Feb-10 20:24S 36°50' E 174°46'0 0.0
2018-Feb-10 20:00S 36°50' E 174°46'0 0.0
2018-Feb-10 19:30S 36°50' E 174°46'0 0.0
2018-Feb-10 19:00S 36°50' E 174°46'0 0.0
2018-Feb-10 18:30S 36°50' E 174°46'0 0.0
2018-Feb-10 18:00S 36°50' E 174°46'0 0.0
2018-Feb-10 17:30S 36°50' E 174°46'0 0.0
2018-Feb-10 17:00S 36°50' E 174°46'0 0.0
2018-Feb-10 16:30S 36°50' E 174°46'0 0.0
2018-Feb-10 16:00S 36°50' E 174°46'0 0.0
2018-Feb-10 15:30S 36°50' E 174°46'0 0.0
2018-Feb-10 15:00S 36°50' E 174°46'0 0.0
2018-Feb-10 14:24S 36°50' E 174°46'0 0.0
2018-Feb-10 14:00S 36°50' E 174°46'0 0.0
2018-Feb-10 13:30S 36°50' E 174°46'0 0.0
2018-Feb-10 12:56S 36°50' E 174°46'0 0.0
2018-Feb-10 12:26S 36°50' E 174°46'0 0.0
2018-Feb-10 11:56S 36°50' E 174°46'0 0.0
2018-Feb-10 11:26S 36°50' E 174°46'0 0.0
2018-Feb-10 10:50S 36°50' E 174°46'0 0.0
2018-Feb-10 10:26S 36°50' E 174°46'0 0.0
2018-Feb-10 09:56S 36°50' E 174°46'0 0.1
2018-Feb-10 09:26S 36°50' E 174°46'0 0.1
2018-Feb-10 08:50S 36°50' E 174°46'0 0.0
2018-Feb-10 08:26S 36°50' E 174°46'0 0.0
2018-Feb-10 07:56S 36°50' E 174°46'0 0.1
2018-Feb-10 07:26S 36°50' E 174°46'0 0.0
2018-Feb-10 06:56S 36°50' E 174°46'0 0.1
2018-Feb-10 06:20S 36°50' E 174°46'0 0.0
2018-Feb-10 05:50S 36°50' E 174°46'0 0.0
2018-Feb-10 05:26S 36°50' E 174°46'0 0.0
2018-Feb-10 04:56S 36°50' E 174°46'0 0.0
2018-Feb-10 04:26S 36°50' E 174°46'0 0.0
2018-Feb-10 03:56S 36°50' E 174°46'0 0.0
2018-Feb-10 03:14S 36°50' E 174°46'0 0.2
2018-Feb-10 02:56S 36°50' E 174°46'0 0.1
2018-Feb-10 02:26S 36°50' E 174°46'0 0.0
2018-Feb-10 01:56S 36°50' E 174°46'0 0.0
2018-Feb-10 01:26S 36°50' E 174°46'0 0.0
2018-Feb-10 00:56S 36°50' E 174°46'0 0.0
2018-Feb-10 00:26S 36°50' E 174°46'0 0.0
2018-Feb-09 23:50S 36°50' E 174°46'0 0.0
2018-Feb-09 23:27S 36°50' E 174°46'0 0.0
2018-Feb-09 22:57S 36°50' E 174°46'0 0.0
2018-Feb-09 22:45S 36°50' E 174°46'0 0.0
2018-Feb-08 01:30S 36°50' E 174°46'0 0.0
2018-Feb-08 00:59S 36°50' E 174°46'0 0.0
2018-Feb-08 00:30S 36°50' E 174°46'0 0.0
2018-Feb-07 23:59S 36°50' E 174°46'0 0.0
2018-Feb-07 23:30S 36°50' E 174°46'0 0.0
2018-Feb-07 23:00S 36°50' E 174°46'0 0.0
2018-Feb-07 22:30S 36°50' E 174°46'0 0.0
2018-Feb-07 22:00S 36°50' E 174°46'0 0.0
2018-Feb-07 21:29S 36°50' E 174°46'25 2.1
2018-Feb-07 09:30S 36°27' E 174°58'3 7.0
2018-Feb-07 09:00S 36°24' E 174°57'3 6.3
2018-Feb-07 08:30S 36°21' E 174°56'3 5.9
2018-Feb-07 08:00S 36°18' E 174°55'9 4.5
2018-Feb-07 05:55S 36°10' E 174°48'2 5.4
2018-Feb-07 05:30S 36°09' E 174°46'7 5.7
2018-Feb-07 04:17S 36°03' E 174°42'  

Dump ship's entire track history